sensor_id;sensor_type;location;lat;lon;timestamp;pressure;altitude;pressure_sealevel;temperature;humidity
67052;BME280;53957;47.222;18.670;2023-02-15T00:00:51;101938.31;;;-3.07;100.00
67052;BME280;53957;47.222;18.670;2023-02-15T00:03:54;101943.25;;;-3.03;100.00
67052;BME280;53957;47.222;18.670;2023-02-15T00:06:57;101942.41;;;-3.04;100.00
67052;BME280;53957;47.222;18.670;2023-02-15T00:10:00;101935.66;;;-3.15;100.00
67052;BME280;53957;47.222;18.670;2023-02-15T00:13:03;101929.31;;;-3.12;100.00
67052;BME280;53957;47.222;18.670;2023-02-15T00:16:09;101934.00;;;-3.16;100.00
67052;BME280;53957;47.222;18.670;2023-02-15T00:19:14;101936.09;;;-3.19;100.00
67052;BME280;53957;47.222;18.670;2023-02-15T00:22:18;101938.53;;;-3.36;100.00
67052;BME280;53957;47.222;18.670;2023-02-15T00:25:21;101933.84;;;-3.32;100.00
67052;BME280;53957;47.222;18.670;2023-02-15T00:28:24;101939.59;;;-3.29;100.00
67052;BME280;53957;47.222;18.670;2023-02-15T00:31:31;101933.31;;;-3.36;100.00
67052;BME280;53957;47.222;18.670;2023-02-15T00:34:36;101938.47;;;-3.26;100.00
67052;BME280;53957;47.222;18.670;2023-02-15T00:37:39;101937.72;;;-3.36;100.00
67052;BME280;53957;47.222;18.670;2023-02-15T00:40:42;101934.78;;;-3.51;100.00
67052;BME280;53957;47.222;18.670;2023-02-15T00:43:45;101929.09;;;-3.65;100.00
67052;BME280;53957;47.222;18.670;2023-02-15T00:46:48;101923.88;;;-3.65;100.00
67052;BME280;53957;47.222;18.670;2023-02-15T00:49:51;101920.06;;;-3.70;100.00
67052;BME280;53957;47.222;18.670;2023-02-15T00:52:54;101921.37;;;-3.57;100.00
67052;BME280;53957;47.222;18.670;2023-02-15T00:55:58;101906.25;;;-3.53;100.00
67052;BME280;53957;47.222;18.670;2023-02-15T00:59:02;101916.34;;;-3.68;100.00
67052;BME280;53957;47.222;18.670;2023-02-15T01:02:05;101913.97;;;-3.61;100.00
67052;BME280;53957;47.222;18.670;2023-02-15T01:05:08;101927.19;;;-3.63;100.00
67052;BME280;53957;47.222;18.670;2023-02-15T01:08:12;101918.88;;;-3.58;100.00
67052;BME280;53957;47.222;18.670;2023-02-15T01:11:19;101915.37;;;-3.67;100.00
67052;BME280;53957;47.222;18.670;2023-02-15T01:14:25;101916.44;;;-3.60;100.00
67052;BME280;53957;47.222;18.670;2023-02-15T01:17:28;101918.09;;;-3.59;100.00
67052;BME280;53957;47.222;18.670;2023-02-15T01:20:34;101913.81;;;-3.60;100.00
67052;BME280;53957;47.222;18.670;2023-02-15T01:23:38;101922.19;;;-3.56;100.00
67052;BME280;53957;47.222;18.670;2023-02-15T01:26:44;101915.63;;;-3.60;100.00
67052;BME280;53957;47.222;18.670;2023-02-15T01:29:47;101911.81;;;-3.66;100.00
67052;BME280;53957;47.222;18.670;2023-02-15T01:32:50;101910.84;;;-3.65;100.00
67052;BME280;53957;47.222;18.670;2023-02-15T01:35:57;101914.06;;;-3.35;100.00
67052;BME280;53957;47.222;18.670;2023-02-15T01:39:01;101904.72;;;-3.74;100.00
67052;BME280;53957;47.222;18.670;2023-02-15T01:42:12;101899.28;;;-3.62;100.00
67052;BME280;53957;47.222;18.670;2023-02-15T01:48:26;101896.06;;;-3.74;100.00
67052;BME280;53957;47.222;18.670;2023-02-15T01:51:33;101890.34;;;-3.60;100.00
67052;BME280;53957;47.222;18.670;2023-02-15T01:54:38;101891.03;;;-3.58;100.00
67052;BME280;53957;47.222;18.670;2023-02-15T01:57:45;101886.31;;;-3.72;100.00
67052;BME280;53957;47.222;18.670;2023-02-15T02:00:49;101882.41;;;-3.86;100.00
67052;BME280;53957;47.222;18.670;2023-02-15T02:04:22;101881.59;;;-3.86;100.00
67052;BME280;53957;47.222;18.670;2023-02-15T02:07:29;101876.25;;;-3.85;100.00
67052;BME280;53957;47.222;18.670;2023-02-15T02:10:35;101876.00;;;-3.92;100.00
67052;BME280;53957;47.222;18.670;2023-02-15T02:13:40;101879.06;;;-3.96;100.00
67052;BME280;53957;47.222;18.670;2023-02-15T02:16:55;101882.62;;;-3.97;100.00
67052;BME280;53957;47.222;18.670;2023-02-15T02:37:19;101888.41;;;-4.03;100.00
67052;BME280;53957;47.222;18.670;2023-02-15T02:40:43;101883.63;;;-4.08;100.00
67052;BME280;53957;47.222;18.670;2023-02-15T02:47:41;101875.28;;;-4.12;100.00
67052;BME280;53957;47.222;18.670;2023-02-15T02:50:46;101880.00;;;-4.25;100.00
67052;BME280;53957;47.222;18.670;2023-02-15T02:53:51;101892.88;;;-4.24;100.00
67052;BME280;53957;47.222;18.670;2023-02-15T02:56:56;101889.69;;;-4.17;100.00
67052;BME280;53957;47.222;18.670;2023-02-15T03:00:03;101881.34;;;-4.21;100.00
67052;BME280;53957;47.222;18.670;2023-02-15T03:03:16;101884.97;;;-4.32;100.00
67052;BME280;53957;47.222;18.670;2023-02-15T03:09:36;101877.53;;;-4.27;100.00
67052;BME280;53957;47.222;18.670;2023-02-15T03:12:48;101881.13;;;-4.38;100.00
67052;BME280;53957;47.222;18.670;2023-02-15T03:15:52;101883.81;;;-4.19;100.00
67052;BME280;53957;47.222;18.670;2023-02-15T03:19:19;101884.81;;;-4.30;100.00
67052;BME280;53957;47.222;18.670;2023-02-15T03:22:32;101894.34;;;-4.21;100.00
67052;BME280;53957;47.222;18.670;2023-02-15T03:25:52;101888.75;;;-4.26;100.00
67052;BME280;53957;47.222;18.670;2023-02-15T03:29:05;101889.06;;;-4.29;100.00
67052;BME280;53957;47.222;18.670;2023-02-15T03:32:10;101888.53;;;-4.33;100.00
67052;BME280;53957;47.222;18.670;2023-02-15T03:35:15;101887.41;;;-4.30;100.00
67052;BME280;53957;47.222;18.670;2023-02-15T03:38:22;101887.16;;;-4.37;100.00
67052;BME280;53957;47.222;18.670;2023-02-15T03:45:15;101885.38;;;-4.37;100.00
67052;BME280;53957;47.222;18.670;2023-02-15T03:48:30;101894.59;;;-4.52;100.00
67052;BME280;53957;47.222;18.670;2023-02-15T03:51:39;101892.13;;;-4.54;100.00
67052;BME280;53957;47.222;18.670;2023-02-15T03:54:43;101888.59;;;-4.62;100.00
67052;BME280;53957;47.222;18.670;2023-02-15T03:57:49;101889.03;;;-4.67;100.00
67052;BME280;53957;47.222;18.670;2023-02-15T04:01:17;101889.72;;;-4.65;100.00
67052;BME280;53957;47.222;18.670;2023-02-15T04:04:46;101889.41;;;-4.62;100.00
67052;BME280;53957;47.222;18.670;2023-02-15T04:07:50;101890.78;;;-4.58;100.00
67052;BME280;53957;47.222;18.670;2023-02-15T04:10:53;101893.41;;;-4.58;100.00
67052;BME280;53957;47.222;18.670;2023-02-15T04:13:56;101897.66;;;-4.57;100.00
67052;BME280;53957;47.222;18.670;2023-02-15T04:16:59;101887.66;;;-4.61;100.00
67052;BME280;53957;47.222;18.670;2023-02-15T04:20:02;101893.81;;;-4.62;100.00
67052;BME280;53957;47.222;18.670;2023-02-15T04:23:24;101895.16;;;-4.58;100.00
67052;BME280;53957;47.222;18.670;2023-02-15T04:26:45;101900.69;;;-4.71;100.00
67052;BME280;53957;47.222;18.670;2023-02-15T04:29:50;101905.03;;;-4.62;100.00
67052;BME280;53957;47.222;18.670;2023-02-15T04:32:54;101899.53;;;-4.49;100.00
67052;BME280;53957;47.222;18.670;2023-02-15T04:35:59;101905.88;;;-4.61;100.00
67052;BME280;53957;47.222;18.670;2023-02-15T04:39:03;101905.38;;;-4.94;100.00
67052;BME280;53957;47.222;18.670;2023-02-15T04:42:06;101903.84;;;-4.97;100.00
67052;BME280;53957;47.222;18.670;2023-02-15T04:45:10;101903.47;;;-5.02;100.00
67052;BME280;53957;47.222;18.670;2023-02-15T04:48:13;101906.31;;;-5.05;100.00
67052;BME280;53957;47.222;18.670;2023-02-15T04:51:16;101901.94;;;-5.05;100.00
67052;BME280;53957;47.222;18.670;2023-02-15T04:54:19;101892.22;;;-5.03;100.00
67052;BME280;53957;47.222;18.670;2023-02-15T04:57:21;101890.84;;;-4.97;100.00
67052;BME280;53957;47.222;18.670;2023-02-15T05:00:26;101890.03;;;-4.97;100.00
67052;BME280;53957;47.222;18.670;2023-02-15T05:03:29;101891.78;;;-4.88;100.00
67052;BME280;53957;47.222;18.670;2023-02-15T05:06:33;101898.50;;;-5.05;100.00
67052;BME280;53957;47.222;18.670;2023-02-15T05:09:36;101888.09;;;-5.05;100.00
67052;BME280;53957;47.222;18.670;2023-02-15T05:12:39;101891.94;;;-4.99;100.00
67052;BME280;53957;47.222;18.670;2023-02-15T05:15:50;101887.56;;;-4.99;100.00
67052;BME280;53957;47.222;18.670;2023-02-15T05:18:53;101898.66;;;-4.97;100.00
67052;BME280;53957;47.222;18.670;2023-02-15T05:21:56;101892.09;;;-5.01;100.00
67052;BME280;53957;47.222;18.670;2023-02-15T05:25:00;101905.78;;;-4.99;100.00
67052;BME280;53957;47.222;18.670;2023-02-15T05:28:42;101904.56;;;-4.95;100.00
67052;BME280;53957;47.222;18.670;2023-02-15T05:31:45;101912.22;;;-5.03;100.00
67052;BME280;53957;47.222;18.670;2023-02-15T05:34:49;101913.72;;;-5.01;100.00
67052;BME280;53957;47.222;18.670;2023-02-15T05:37:53;101915.50;;;-5.11;100.00
67052;BME280;53957;47.222;18.670;2023-02-15T05:40:56;101919.47;;;-5.17;100.00
67052;BME280;53957;47.222;18.670;2023-02-15T05:43:59;101917.16;;;-5.29;100.00
67052;BME280;53957;47.222;18.670;2023-02-15T05:47:02;101923.69;;;-5.45;100.00
67052;BME280;53957;47.222;18.670;2023-02-15T05:50:06;101930.25;;;-5.31;100.00
67052;BME280;53957;47.222;18.670;2023-02-15T05:53:09;101932.75;;;-5.20;100.00
67052;BME280;53957;47.222;18.670;2023-02-15T05:56:18;101948.25;;;-5.08;100.00
67052;BME280;53957;47.222;18.670;2023-02-15T05:59:21;101947.97;;;-4.95;100.00
67052;BME280;53957;47.222;18.670;2023-02-15T06:02:24;101941.25;;;-4.98;100.00
67052;BME280;53957;47.222;18.670;2023-02-15T06:05:28;101945.09;;;-4.92;100.00
67052;BME280;53957;47.222;18.670;2023-02-15T06:08:32;101937.94;;;-5.00;100.00
67052;BME280;53957;47.222;18.670;2023-02-15T06:11:56;101945.25;;;-5.04;100.00
67052;BME280;53957;47.222;18.670;2023-02-15T06:15:38;101939.75;;;-4.91;100.00
67052;BME280;53957;47.222;18.670;2023-02-15T06:18:42;101942.09;;;-4.88;100.00
67052;BME280;53957;47.222;18.670;2023-02-15T06:21:45;101941.25;;;-4.78;100.00
67052;BME280;53957;47.222;18.670;2023-02-15T06:25:08;101946.03;;;-4.64;100.00
67052;BME280;53957;47.222;18.670;2023-02-15T06:28:13;101947.12;;;-4.47;100.00
67052;BME280;53957;47.222;18.670;2023-02-15T06:31:17;101939.25;;;-4.37;100.00
67052;BME280;53957;47.222;18.670;2023-02-15T06:34:19;101941.44;;;-4.32;100.00
67052;BME280;53957;47.222;18.670;2023-02-15T06:37:23;101944.91;;;-4.04;100.00
67052;BME280;53957;47.222;18.670;2023-02-15T06:40:25;101942.34;;;-3.76;100.00
67052;BME280;53957;47.222;18.670;2023-02-15T06:43:30;101950.69;;;-3.73;100.00
67052;BME280;53957;47.222;18.670;2023-02-15T06:46:33;101961.09;;;-3.63;100.00
67052;BME280;53957;47.222;18.670;2023-02-15T06:49:37;101949.66;;;-3.16;100.00
67052;BME280;53957;47.222;18.670;2023-02-15T06:53:00;101961.50;;;-2.85;100.00
67052;BME280;53957;47.222;18.670;2023-02-15T06:56:27;101961.59;;;-2.33;100.00
67052;BME280;53957;47.222;18.670;2023-02-15T16:47:53;101639.84;;;1.43;100.00
67052;BME280;53957;47.222;18.670;2023-02-15T16:51:00;101645.41;;;1.34;100.00
67052;BME280;53957;47.222;18.670;2023-02-15T16:54:13;101639.22;;;0.90;100.00
67052;BME280;53957;47.222;18.670;2023-02-15T16:57:21;101639.94;;;0.84;100.00
67052;BME280;53957;47.222;18.670;2023-02-15T17:00:47;101643.84;;;0.73;100.00
67052;BME280;53957;47.222;18.670;2023-02-15T17:04:31;101642.50;;;0.62;100.00
67052;BME280;53957;47.222;18.670;2023-02-15T17:08:10;101647.09;;;0.60;100.00
67052;BME280;53957;47.222;18.670;2023-02-15T17:11:19;101649.53;;;0.31;100.00
67052;BME280;53957;47.222;18.670;2023-02-15T17:14:30;101645.69;;;0.19;100.00
67052;BME280;53957;47.222;18.670;2023-02-15T17:17:35;101649.84;;;0.13;100.00
67052;BME280;53957;47.222;18.670;2023-02-15T17:20:39;101640.16;;;0.14;100.00
67052;BME280;53957;47.222;18.670;2023-02-15T17:23:47;101656.63;;;0.08;100.00
67052;BME280;53957;47.222;18.670;2023-02-15T17:26:55;101648.00;;;-0.01;100.00
67052;BME280;53957;47.222;18.670;2023-02-15T17:30:32;101649.19;;;-0.04;100.00
67052;BME280;53957;47.222;18.670;2023-02-15T17:33:39;101648.06;;;-0.09;100.00
67052;BME280;53957;47.222;18.670;2023-02-15T17:36:57;101649.34;;;-0.05;100.00
67052;BME280;53957;47.222;18.670;2023-02-15T17:40:27;101653.06;;;0.01;100.00
67052;BME280;53957;47.222;18.670;2023-02-15T17:43:42;101650.91;;;-0.19;100.00
67052;BME280;53957;47.222;18.670;2023-02-15T17:46:46;101640.44;;;-0.19;100.00
67052;BME280;53957;47.222;18.670;2023-02-15T17:49:50;101642.31;;;-0.28;100.00
67052;BME280;53957;47.222;18.670;2023-02-15T17:52:59;101647.78;;;-0.38;100.00
67052;BME280;53957;47.222;18.670;2023-02-15T17:56:24;101644.50;;;-0.40;100.00
67052;BME280;53957;47.222;18.670;2023-02-15T17:59:30;101646.84;;;-0.22;100.00
67052;BME280;53957;47.222;18.670;2023-02-15T18:02:41;101648.81;;;-0.47;100.00
67052;BME280;53957;47.222;18.670;2023-02-15T18:06:25;101645.97;;;-0.60;100.00
67052;BME280;53957;47.222;18.670;2023-02-15T18:10:18;101644.63;;;-0.56;100.00
67052;BME280;53957;47.222;18.670;2023-02-15T18:13:42;101641.22;;;-0.65;100.00
67052;BME280;53957;47.222;18.670;2023-02-15T18:16:45;101643.09;;;-0.74;100.00
67052;BME280;53957;47.222;18.670;2023-02-15T18:19:53;101631.66;;;-0.81;100.00
67052;BME280;53957;47.222;18.670;2023-02-15T18:23:02;101637.56;;;-0.79;100.00
67052;BME280;53957;47.222;18.670;2023-02-15T18:26:20;101633.69;;;-0.91;100.00
67052;BME280;53957;47.222;18.670;2023-02-15T18:29:27;101636.50;;;-1.01;100.00
67052;BME280;53957;47.222;18.670;2023-02-15T18:32:36;101629.84;;;-1.12;100.00
67052;BME280;53957;47.222;18.670;2023-02-15T18:35:41;101630.69;;;-1.20;100.00
67052;BME280;53957;47.222;18.670;2023-02-15T18:42:42;101629.06;;;-1.21;100.00
67052;BME280;53957;47.222;18.670;2023-02-15T18:45:52;101622.16;;;-1.14;100.00
67052;BME280;53957;47.222;18.670;2023-02-15T18:48:57;101625.94;;;-1.24;100.00
67052;BME280;53957;47.222;18.670;2023-02-15T18:52:04;101629.84;;;-1.20;100.00
67052;BME280;53957;47.222;18.670;2023-02-15T18:55:20;101628.09;;;-1.28;100.00
67052;BME280;53957;47.222;18.670;2023-02-15T18:58:24;101626.13;;;-1.26;100.00
67052;BME280;53957;47.222;18.670;2023-02-15T19:01:29;101630.03;;;-1.30;100.00
67052;BME280;53957;47.222;18.670;2023-02-15T19:04:34;101627.44;;;-1.30;100.00
67052;BME280;53957;47.222;18.670;2023-02-15T19:07:37;101620.25;;;-1.36;100.00
67052;BME280;53957;47.222;18.670;2023-02-15T19:10:43;101627.00;;;-1.50;100.00
67052;BME280;53957;47.222;18.670;2023-02-15T19:13:47;101625.34;;;-1.43;100.00
67052;BME280;53957;47.222;18.670;2023-02-15T19:17:15;101634.50;;;-1.39;100.00
67052;BME280;53957;47.222;18.670;2023-02-15T19:20:21;101637.59;;;-1.43;100.00
67052;BME280;53957;47.222;18.670;2023-02-15T19:23:25;101639.44;;;-1.52;100.00
67052;BME280;53957;47.222;18.670;2023-02-15T19:26:30;101637.47;;;-1.58;100.00
67052;BME280;53957;47.222;18.670;2023-02-15T19:29:48;101641.09;;;-1.68;100.00
67052;BME280;53957;47.222;18.670;2023-02-15T19:32:58;101642.22;;;-1.62;100.00
67052;BME280;53957;47.222;18.670;2023-02-15T19:36:05;101641.56;;;-1.56;100.00
67052;BME280;53957;47.222;18.670;2023-02-15T19:39:37;101635.22;;;-1.70;100.00
67052;BME280;53957;47.222;18.670;2023-02-15T19:42:43;101628.34;;;-1.79;100.00
67052;BME280;53957;47.222;18.670;2023-02-15T19:45:49;101630.31;;;-1.89;100.00
67052;BME280;53957;47.222;18.670;2023-02-15T19:48:57;101622.81;;;-1.92;100.00
67052;BME280;53957;47.222;18.670;2023-02-15T19:52:09;101628.06;;;-1.92;100.00
67052;BME280;53957;47.222;18.670;2023-02-15T19:55:36;101627.22;;;-1.93;100.00
67052;BME280;53957;47.222;18.670;2023-02-15T19:58:40;101625.44;;;-2.01;100.00
67052;BME280;53957;47.222;18.670;2023-02-15T20:01:47;101627.88;;;-1.91;100.00
67052;BME280;53957;47.222;18.670;2023-02-15T20:04:56;101623.13;;;-2.04;100.00
67052;BME280;53957;47.222;18.670;2023-02-15T20:08:01;101626.41;;;-1.93;100.00
67052;BME280;53957;47.222;18.670;2023-02-15T20:11:14;101628.06;;;-2.01;100.00
67052;BME280;53957;47.222;18.670;2023-02-15T20:14:21;101625.44;;;-2.09;100.00
67052;BME280;53957;47.222;18.670;2023-02-15T20:17:28;101626.09;;;-2.07;100.00
67052;BME280;53957;47.222;18.670;2023-02-15T20:20:41;101615.28;;;-2.04;100.00
67052;BME280;53957;47.222;18.670;2023-02-15T20:24:27;101623.13;;;-2.04;100.00
67052;BME280;53957;47.222;18.670;2023-02-15T20:27:33;101615.12;;;-1.94;100.00
67052;BME280;53957;47.222;18.670;2023-02-15T20:31:02;101618.06;;;-2.05;100.00
67052;BME280;53957;47.222;18.670;2023-02-15T20:34:14;101628.88;;;-2.08;100.00
67052;BME280;53957;47.222;18.670;2023-02-15T20:37:40;101625.09;;;-2.14;100.00
67052;BME280;53957;47.222;18.670;2023-02-15T20:41:03;101623.50;;;-2.23;100.00
67052;BME280;53957;47.222;18.670;2023-02-15T20:44:45;101622.81;;;-2.25;100.00
67052;BME280;53957;47.222;18.670;2023-02-15T20:47:50;101621.84;;;-2.33;100.00
67052;BME280;53957;47.222;18.670;2023-02-15T20:51:01;101621.81;;;-2.49;100.00
67052;BME280;53957;47.222;18.670;2023-02-15T20:54:20;101620.34;;;-2.52;100.00
67052;BME280;53957;47.222;18.670;2023-02-15T20:57:25;101616.87;;;-2.61;100.00
67052;BME280;53957;47.222;18.670;2023-02-15T21:00:30;101616.22;;;-2.71;100.00
67052;BME280;53957;47.222;18.670;2023-02-15T21:03:34;101616.03;;;-2.86;100.00
67052;BME280;53957;47.222;18.670;2023-02-15T21:06:38;101613.94;;;-2.74;100.00
67052;BME280;53957;47.222;18.670;2023-02-15T21:10:02;101610.53;;;-2.66;100.00
67052;BME280;53957;47.222;18.670;2023-02-15T21:13:18;101613.47;;;-2.61;100.00
67052;BME280;53957;47.222;18.670;2023-02-15T21:16:59;101610.66;;;-2.76;100.00
67052;BME280;53957;47.222;18.670;2023-02-15T21:20:02;101605.75;;;-2.79;100.00
67052;BME280;53957;47.222;18.670;2023-02-15T21:23:28;101608.56;;;-2.72;100.00
67052;BME280;53957;47.222;18.670;2023-02-15T21:26:40;101618.84;;;-2.63;100.00
67052;BME280;53957;47.222;18.670;2023-02-15T21:29:47;101611.81;;;-2.70;100.00
67052;BME280;53957;47.222;18.670;2023-02-15T21:33:10;101601.84;;;-2.75;100.00
67052;BME280;53957;47.222;18.670;2023-02-15T21:36:22;101599.06;;;-2.73;100.00
67052;BME280;53957;47.222;18.670;2023-02-15T21:39:28;101607.06;;;-2.75;100.00
67052;BME280;53957;47.222;18.670;2023-02-15T21:42:55;101610.63;;;-2.84;100.00
67052;BME280;53957;47.222;18.670;2023-02-15T21:46:19;101606.72;;;-2.88;100.00
67052;BME280;53957;47.222;18.670;2023-02-15T21:49:41;101609.13;;;-2.95;100.00
67052;BME280;53957;47.222;18.670;2023-02-15T21:52:44;101591.19;;;-2.98;100.00
67052;BME280;53957;47.222;18.670;2023-02-15T21:56:13;101604.41;;;-3.00;100.00
67052;BME280;53957;47.222;18.670;2023-02-15T21:59:36;101606.16;;;-3.09;100.00
67052;BME280;53957;47.222;18.670;2023-02-15T22:03:00;101603.06;;;-3.04;100.00
67052;BME280;53957;47.222;18.670;2023-02-15T22:06:23;101599.19;;;-3.00;100.00
67052;BME280;53957;47.222;18.670;2023-02-15T22:09:27;101595.56;;;-2.99;100.00
67052;BME280;53957;47.222;18.670;2023-02-15T22:13:26;101595.91;;;-3.02;100.00
67052;BME280;53957;47.222;18.670;2023-02-15T22:16:31;101599.72;;;-3.22;100.00
67052;BME280;53957;47.222;18.670;2023-02-15T22:19:55;101601.03;;;-3.27;100.00
67052;BME280;53957;47.222;18.670;2023-02-15T22:23:00;101598.59;;;-3.20;100.00
67052;BME280;53957;47.222;18.670;2023-02-15T22:26:06;101603.00;;;-3.20;100.00
67052;BME280;53957;47.222;18.670;2023-02-15T22:29:19;101598.25;;;-3.25;100.00
67052;BME280;53957;47.222;18.670;2023-02-15T22:32:44;101601.50;;;-3.31;100.00
67052;BME280;53957;47.222;18.670;2023-02-15T22:35:50;101599.22;;;-3.26;100.00
67052;BME280;53957;47.222;18.670;2023-02-15T22:39:34;101603.94;;;-3.30;100.00
67052;BME280;53957;47.222;18.670;2023-02-15T22:42:37;101604.44;;;-3.26;100.00
67052;BME280;53957;47.222;18.670;2023-02-15T22:45:43;101603.00;;;-3.20;100.00
67052;BME280;53957;47.222;18.670;2023-02-15T22:48:47;101611.50;;;-3.18;100.00
67052;BME280;53957;47.222;18.670;2023-02-15T22:51:50;101604.81;;;-3.21;100.00
67052;BME280;53957;47.222;18.670;2023-02-15T22:54:55;101608.53;;;-3.24;100.00
67052;BME280;53957;47.222;18.670;2023-02-15T22:58:22;101607.69;;;-3.32;100.00
67052;BME280;53957;47.222;18.670;2023-02-15T23:01:46;101607.66;;;-3.41;100.00
67052;BME280;53957;47.222;18.670;2023-02-15T23:05:27;101598.38;;;-3.35;100.00
67052;BME280;53957;47.222;18.670;2023-02-15T23:08:31;101601.94;;;-3.36;100.00
67052;BME280;53957;47.222;18.670;2023-02-15T23:11:35;101600.19;;;-3.35;100.00
67052;BME280;53957;47.222;18.670;2023-02-15T23:14:38;101606.19;;;-3.43;100.00
67052;BME280;53957;47.222;18.670;2023-02-15T23:21:36;101600.56;;;-3.57;100.00
67052;BME280;53957;47.222;18.670;2023-02-15T23:24:40;101596.22;;;-3.48;100.00
67052;BME280;53957;47.222;18.670;2023-02-15T23:28:03;101594.22;;;-3.54;100.00
67052;BME280;53957;47.222;18.670;2023-02-15T23:31:15;101602.03;;;-3.54;100.00
67052;BME280;53957;47.222;18.670;2023-02-15T23:34:25;101588.66;;;-3.59;100.00
67052;BME280;53957;47.222;18.670;2023-02-15T23:37:28;101595.44;;;-3.66;100.00
67052;BME280;53957;47.222;18.670;2023-02-15T23:40:33;101592.00;;;-3.67;100.00
67052;BME280;53957;47.222;18.670;2023-02-15T23:44:02;101592.34;;;-3.70;100.00
67052;BME280;53957;47.222;18.670;2023-02-15T23:47:18;101593.50;;;-3.64;100.00
67052;BME280;53957;47.222;18.670;2023-02-15T23:50:25;101593.22;;;-3.87;100.00
67052;BME280;53957;47.222;18.670;2023-02-15T23:53:31;101587.59;;;-3.93;100.00
67052;BME280;53957;47.222;18.670;2023-02-15T23:56:35;101590.00;;;-3.81;100.00
67052;BME280;53957;47.222;18.670;2023-02-15T23:59:43;101594.47;;;-3.92;100.00
